createdAt,value
2019-01-21T00:02:06.374Z,41.97
2019-01-21T00:04:40.821Z,47.40
2019-01-21T00:07:15.413Z,40.57
2019-01-21T00:09:50.037Z,40.77
2019-01-21T00:12:25.823Z,40.13
2019-01-21T00:14:59.817Z,42.77
2019-01-21T00:17:34.323Z,38.50
2019-01-21T00:20:09.817Z,40.80
2019-01-21T00:22:44.822Z,49.50
2019-01-21T00:25:20.036Z,41.53
2019-01-21T00:27:54.043Z,41.40
2019-01-21T00:30:29.282Z,41.07
2019-01-21T00:33:04.109Z,42.40
2019-01-21T00:35:39.818Z,47.23
2019-01-21T00:38:14.828Z,40.63
2019-01-21T00:40:48.829Z,42.10
2019-01-21T00:43:24.037Z,43.27
2019-01-21T00:45:59.278Z,40.23
2019-01-21T00:48:34.105Z,43.53
2019-01-21T00:51:09.140Z,46.87
2019-01-21T00:53:44.376Z,41.67
2019-01-21T00:56:19.849Z,40.80
2019-01-21T00:58:55.058Z,43.27
2019-01-21T01:01:30.298Z,41.07
2019-01-21T01:04:04.834Z,45.07
2019-01-21T01:06:39.833Z,43.73
2019-01-21T01:09:14.373Z,37.90
2019-01-21T01:11:50.430Z,42.23
2019-01-21T01:14:25.054Z,43.20
2019-01-21T01:17:01.317Z,46.07
2019-01-21T01:19:36.834Z,44.97
2019-01-21T01:22:11.853Z,44.17
2019-01-21T01:24:46.212Z,44.17
2019-01-21T01:27:21.248Z,47.07
2019-01-21T01:29:57.098Z,44.70
2019-01-21T01:32:32.134Z,42.23
2019-01-21T01:35:07.833Z,41.07
2019-01-21T01:37:41.834Z,45.07
2019-01-21T01:40:22.763Z,38.30
2019-01-21T01:42:56.772Z,42.87
2019-01-21T01:45:31.834Z,40.60
2019-01-21T01:48:07.043Z,37.47
2019-01-21T01:50:42.833Z,38.30
2019-01-21T01:53:17.836Z,43.23
2019-01-21T01:55:52.855Z,48.07
2019-01-21T01:58:26.835Z,41.17
2019-01-21T02:01:00.855Z,41.50
2019-01-21T02:03:35.842Z,44.10
2019-01-21T02:06:11.254Z,46.37
2019-01-21T02:08:46.836Z,46.03
2019-01-21T02:11:23.573Z,42.87
2019-01-21T02:13:58.403Z,36.20
2019-01-21T02:16:32.851Z,42.03
2019-01-21T02:19:06.861Z,42.53
2019-01-21T02:21:45.837Z,44.53
2019-01-21T02:24:23.248Z,40.97
2019-01-21T02:27:17.327Z,43.30
2019-01-21T02:30:39.260Z,41.67
2019-01-21T02:33:45.862Z,40.23
2019-01-21T02:36:42.844Z,45.13
2019-01-21T02:39:49.633Z,49.83
2019-01-21T02:42:38.722Z,50.80
2019-01-21T02:45:20.309Z,46.90
2019-01-21T02:48:26.068Z,53.90
2019-01-21T02:51:55.367Z,44.20
2019-01-21T02:54:57.230Z,49.03
2019-01-21T02:57:47.862Z,50.40
2019-01-21T03:00:46.855Z,49.33
2019-01-21T03:03:41.314Z,45.87
2019-01-21T03:07:12.256Z,46.30
2019-01-21T03:10:09.855Z,50.43
2019-01-21T03:13:30.318Z,50.63
2019-01-21T03:17:05.845Z,53.53
2019-01-21T03:20:05.375Z,51.50
2019-01-21T03:26:36.135Z,50.00
2019-01-21T03:29:35.335Z,55.80
2019-01-21T03:36:10.409Z,46.80
2019-01-21T03:42:48.320Z,43.90
2019-01-21T03:45:38.846Z,53.87
2019-01-21T03:48:30.336Z,52.57
2019-01-21T03:51:40.848Z,42.97
2019-01-21T03:54:29.351Z,56.57
2019-01-21T03:57:26.847Z,50.53
2019-01-21T04:00:37.381Z,54.23
2019-01-21T04:03:32.276Z,55.97
2019-01-21T04:06:37.857Z,58.03
2019-01-21T04:09:47.263Z,48.63
2019-01-21T04:12:58.340Z,49.13
2019-01-21T04:16:11.065Z,54.67
2019-01-21T04:19:29.848Z,53.83
2019-01-21T04:22:36.694Z,56.50
2019-01-21T04:26:14.192Z,49.33
2019-01-21T04:28:59.670Z,48.23
2019-01-21T04:31:58.256Z,54.67
2019-01-21T04:35:15.070Z,52.30
2019-01-21T04:38:29.864Z,54.03
2019-01-21T04:41:38.456Z,49.13
2019-01-21T04:44:46.254Z,52.73
2019-01-21T04:47:44.874Z,49.80
2019-01-21T04:50:43.872Z,49.63
2019-01-21T04:54:24.850Z,63.00
2019-01-21T04:57:45.856Z,54.63
2019-01-21T05:00:53.852Z,49.03
2019-01-21T05:04:07.266Z,48.33
2019-01-21T05:07:25.853Z,54.83
2019-01-21T05:10:12.865Z,52.60
2019-01-21T05:13:13.262Z,53.93
2019-01-21T05:16:28.880Z,47.20
2019-01-21T05:19:37.056Z,50.33
2019-01-21T05:22:52.879Z,52.50
2019-01-21T05:25:41.856Z,54.30
2019-01-21T05:28:47.766Z,50.83
2019-01-21T05:31:46.854Z,46.97
2019-01-21T05:34:59.080Z,50.73
2019-01-21T05:38:07.281Z,56.47
2019-01-21T05:41:14.474Z,50.60
2019-01-21T05:44:31.482Z,52.53
2019-01-21T05:47:47.855Z,49.83
2019-01-21T05:51:18.427Z,50.87
2019-01-21T05:54:37.281Z,51.13
2019-01-21T05:57:53.070Z,53.07
2019-01-21T06:01:24.866Z,50.43
2019-01-21T06:04:31.856Z,49.27
2019-01-21T06:07:44.532Z,60.63
2019-01-21T06:17:48.691Z,53.77
2019-01-21T06:24:13.305Z,58.97
2019-01-21T06:27:23.360Z,54.67
2019-01-21T06:30:55.530Z,53.57
2019-01-21T06:37:25.470Z,52.80
2019-01-21T06:44:47.229Z,49.73
2019-01-21T06:48:03.422Z,57.63
2019-01-21T06:51:11.224Z,53.07
2019-01-21T06:54:26.397Z,50.27
2019-01-21T06:57:52.837Z,53.17
2019-01-21T07:01:28.284Z,55.60
2019-01-21T07:04:48.875Z,60.43
2019-01-21T07:08:24.643Z,46.07
2019-01-21T07:11:41.457Z,52.60
2019-01-21T07:15:15.474Z,53.83
2019-01-21T07:18:21.432Z,51.27
2019-01-21T07:21:48.278Z,54.17
2019-01-21T07:25:17.585Z,54.93
2019-01-21T07:28:45.668Z,49.63
2019-01-21T07:31:58.584Z,57.13
2019-01-21T07:45:44.336Z,51.27
2019-01-21T07:49:02.583Z,49.03
2019-01-21T07:52:09.681Z,52.23
2019-01-21T08:02:25.602Z,58.63
2019-01-21T08:05:43.896Z,49.17
2019-01-21T08:08:36.497Z,53.03
2019-01-21T08:12:05.191Z,51.07
2019-01-21T08:15:20.589Z,60.33
2019-01-21T08:18:52.123Z,60.87
2019-01-21T08:22:13.440Z,57.33
2019-01-21T08:28:55.873Z,54.30
2019-01-21T08:32:18.885Z,57.30
2019-01-21T08:35:20.489Z,55.63
2019-01-21T08:44:58.888Z,64.10
2019-01-21T08:48:08.290Z,60.90
2019-01-21T08:51:20.596Z,57.40
2019-01-21T08:54:33.353Z,54.23
2019-01-21T08:57:53.408Z,49.63
2019-01-21T09:01:01.402Z,59.77
2019-01-21T09:04:05.643Z,54.10
2019-01-21T09:13:23.194Z,53.83
2019-01-21T09:20:12.174Z,57.27
2019-01-21T09:22:58.479Z,57.80
2019-01-21T09:26:16.020Z,56.97
2019-01-21T09:29:35.372Z,56.70
2019-01-21T09:36:20.470Z,54.70
2019-01-21T09:39:18.440Z,56.07
2019-01-21T09:42:15.594Z,57.83
2019-01-21T09:45:36.306Z,54.57
2019-01-21T09:51:41.908Z,56.77
2019-01-21T09:57:46.404Z,51.13
2019-01-21T10:03:52.588Z,51.27
2019-01-21T10:06:35.816Z,49.93
2019-01-21T10:09:25.911Z,54.00
2019-01-21T10:12:27.910Z,55.30
2019-01-21T10:15:44.266Z,50.87
2019-01-21T10:19:00.269Z,53.00
2019-01-21T10:22:01.305Z,48.27
2019-01-21T10:25:16.920Z,53.77
2019-01-21T10:28:26.123Z,49.87
2019-01-21T10:31:30.914Z,57.53
2019-01-21T10:34:55.913Z,53.27
2019-01-21T10:38:03.910Z,53.53
2019-01-21T10:41:00.403Z,57.53
2019-01-21T10:43:56.323Z,51.83
2019-01-21T10:51:10.296Z,58.33
2019-01-21T10:54:10.520Z,50.23
2019-01-21T10:57:05.418Z,51.63
2019-01-21T11:00:13.427Z,54.93
2019-01-21T11:06:53.399Z,57.90
2019-01-21T11:09:49.139Z,49.33
2019-01-21T11:12:51.927Z,55.60
2019-01-21T11:15:36.936Z,56.40
2019-01-21T11:22:23.600Z,53.40
2019-01-21T11:28:54.364Z,58.13
2019-01-21T11:31:55.199Z,56.27
2019-01-21T11:35:17.334Z,56.40
2019-01-21T11:38:00.155Z,97.77
2019-01-21T11:41:11.442Z,52.93
2019-01-21T11:44:15.350Z,56.33
2019-01-21T11:47:27.933Z,56.53
2019-01-21T11:50:35.932Z,57.70
2019-01-21T11:53:50.832Z,54.23
2019-01-21T11:56:48.931Z,59.60
2019-01-21T11:59:51.492Z,58.13
2019-01-21T12:02:51.506Z,101.47
2019-01-21T12:05:57.665Z,62.03
2019-01-21T12:09:06.941Z,56.13
2019-01-21T12:12:31.940Z,66.93
2019-01-21T12:15:30.696Z,51.03
2019-01-21T12:18:32.774Z,57.87
2019-01-21T12:21:47.528Z,54.57
2019-01-21T12:24:36.282Z,55.47
2019-01-21T12:27:45.959Z,59.10
2019-01-21T12:30:54.138Z,53.47
2019-01-21T12:34:05.943Z,57.37
2019-01-21T12:37:25.954Z,55.10
2019-01-21T12:40:14.946Z,54.17
2019-01-21T12:43:16.540Z,59.80
2019-01-21T12:46:29.464Z,64.67
2019-01-21T12:53:31.757Z,54.60
2019-01-21T12:56:41.608Z,52.97
2019-01-21T13:00:01.946Z,59.33
2019-01-21T13:06:20.375Z,51.13
2019-01-21T13:09:19.572Z,53.90
2019-01-21T13:16:30.470Z,64.30
2019-01-21T13:19:39.910Z,52.70
2019-01-21T13:22:39.932Z,57.80
2019-01-21T13:25:47.965Z,62.97
2019-01-21T13:28:42.426Z,59.20
2019-01-21T13:31:59.948Z,61.13
2019-01-21T13:34:58.642Z,62.70
2019-01-21T13:38:34.503Z,67.47
2019-01-21T13:41:18.546Z,57.10
2019-01-21T13:44:42.971Z,57.27
2019-01-21T13:48:00.568Z,77.47
2019-01-21T13:51:10.948Z,63.87
2019-01-21T13:54:16.172Z,57.87
2019-01-21T14:00:51.439Z,56.43
2019-01-21T14:03:38.351Z,62.43
2019-01-21T14:06:37.752Z,59.27
2019-01-21T14:09:45.348Z,68.80
2019-01-21T14:16:22.952Z,58.10
2019-01-21T14:19:13.953Z,68.93
2019-01-21T14:22:32.529Z,56.87
2019-01-21T14:32:45.959Z,58.43
2019-01-21T14:39:13.201Z,64.83
2019-01-21T14:45:52.747Z,65.13
2019-01-21T14:48:52.776Z,61.40
2019-01-21T14:55:34.794Z,63.27
2019-01-21T15:02:44.476Z,65.40
2019-01-21T15:06:30.559Z,62.43
2019-01-21T15:09:44.460Z,64.70
2019-01-21T15:12:49.440Z,57.40
2019-01-21T15:16:29.255Z,76.17
2019-01-21T15:19:38.995Z,69.27
2019-01-21T15:22:49.525Z,62.43
2019-01-21T15:26:03.332Z,74.90
2019-01-21T15:29:06.628Z,64.43
2019-01-21T15:32:27.475Z,65.30
2019-01-21T15:39:29.058Z,63.23
2019-01-21T15:42:46.309Z,64.70
2019-01-21T15:45:59.991Z,61.83
2019-01-21T15:52:39.659Z,58.00
2019-01-21T15:55:57.493Z,64.00
2019-01-21T15:58:54.442Z,62.80
2019-01-21T16:01:57.531Z,60.90
2019-01-21T16:05:14.992Z,68.90
2019-01-21T16:08:06.361Z,66.63
2019-01-21T16:14:38.830Z,61.53
2019-01-21T16:17:57.842Z,61.13
2019-01-21T16:21:24.584Z,61.47
2019-01-21T16:24:39.005Z,69.03
2019-01-21T16:27:45.515Z,57.17
2019-01-21T16:30:47.578Z,56.70
2019-01-21T16:33:54.769Z,62.10
2019-01-21T16:36:45.006Z,59.47
2019-01-21T16:42:20.426Z,56.90
2019-01-21T16:45:06.018Z,62.70
2019-01-21T16:47:43.592Z,80.10
2019-01-21T16:50:24.220Z,61.03
2019-01-21T16:53:00.213Z,58.33
2019-01-21T16:59:05.003Z,64.27
2019-01-21T17:01:44.500Z,61.70
2019-01-21T17:04:20.008Z,59.63
2019-01-21T17:10:26.330Z,60.37
2019-01-21T17:13:05.255Z,55.17
2019-01-21T17:15:42.543Z,59.70
2019-01-21T17:18:17.984Z,57.23
2019-01-21T17:20:57.548Z,64.10
2019-01-21T17:23:34.809Z,62.50
2019-01-21T17:26:09.229Z,62.43
2019-01-21T17:28:47.540Z,58.70
2019-01-21T17:31:23.602Z,66.77
2019-01-21T17:34:03.008Z,59.50
2019-01-21T17:36:38.006Z,60.40
2019-01-21T17:39:17.504Z,64.93
2019-01-21T17:41:52.538Z,57.73
2019-01-21T17:44:29.037Z,67.97
2019-01-21T17:47:07.010Z,61.73
2019-01-21T17:49:41.939Z,63.03
2019-01-21T17:52:23.529Z,55.53
2019-01-21T17:54:58.562Z,61.47
2019-01-21T17:57:33.010Z,60.97
2019-01-21T18:00:08.421Z,58.30
2019-01-21T18:06:13.015Z,65.13
2019-01-21T18:08:47.590Z,60.80
2019-01-21T18:11:25.501Z,58.10
2019-01-21T18:14:02.573Z,71.83
2019-01-21T18:16:46.833Z,66.83
2019-01-21T18:19:28.619Z,60.30
2019-01-21T18:22:08.566Z,61.77
2019-01-21T18:24:44.622Z,58.43
2019-01-21T18:27:24.570Z,58.20
2019-01-21T18:30:02.118Z,63.90
2019-01-21T18:32:47.757Z,58.83
2019-01-21T18:35:23.021Z,61.30
2019-01-21T18:37:58.838Z,63.17
2019-01-21T18:44:13.034Z,56.87
2019-01-21T18:50:19.014Z,59.77
2019-01-21T18:52:54.225Z,59.33
2019-01-21T18:55:31.505Z,60.00
2019-01-21T18:58:07.015Z,58.40
2019-01-21T19:00:41.016Z,66.43
2019-01-21T19:03:24.598Z,62.90
2019-01-21T19:06:02.704Z,58.17
2019-01-21T19:08:38.019Z,63.60
2019-01-21T19:11:13.585Z,61.50
2019-01-21T19:13:49.847Z,53.47
2019-01-21T19:16:27.543Z,56.67
2019-01-21T19:19:03.028Z,57.50
2019-01-21T19:21:38.635Z,63.03
2019-01-21T19:24:14.691Z,56.73
2019-01-21T19:26:49.521Z,63.20
2019-01-21T19:29:25.578Z,67.10
2019-01-21T19:32:02.662Z,64.90
2019-01-21T19:34:39.023Z,60.70
2019-01-21T19:37:13.750Z,59.97
2019-01-21T19:39:49.028Z,66.30
2019-01-21T19:42:24.055Z,57.80
2019-01-21T19:45:01.925Z,68.30
2019-01-21T19:47:38.595Z,65.63
2019-01-21T19:50:13.051Z,68.67
2019-01-21T19:52:50.027Z,66.83
2019-01-21T19:55:28.032Z,58.17
2019-01-21T19:58:05.487Z,64.17
2019-01-21T20:00:41.545Z,72.77
2019-01-21T20:03:17.035Z,60.70
2019-01-21T20:05:51.031Z,65.97
2019-01-21T20:08:26.647Z,65.60
2019-01-21T20:11:03.942Z,73.00
2019-01-21T20:13:42.857Z,64.03
2019-01-21T20:16:18.505Z,73.97
2019-01-21T20:18:53.540Z,76.80
2019-01-21T20:21:32.269Z,76.10
2019-01-21T20:24:10.066Z,73.90
2019-01-21T20:26:45.715Z,62.77
2019-01-21T20:29:28.940Z,77.27
2019-01-21T20:32:06.023Z,66.67
2019-01-21T20:34:41.875Z,74.27
2019-01-21T20:37:17.526Z,72.93
2019-01-21T20:39:52.714Z,89.23
2019-01-21T20:42:29.228Z,69.83
2019-01-21T20:45:03.038Z,77.33
2019-01-21T20:47:39.499Z,75.73
2019-01-21T20:50:20.972Z,83.30
2019-01-21T20:52:57.104Z,72.00
2019-01-21T20:55:34.487Z,80.67
2019-01-21T20:58:10.489Z,75.53
2019-01-21T21:00:46.183Z,72.93
2019-01-21T21:03:22.808Z,76.53
2019-01-21T21:05:58.661Z,76.23
2019-01-21T21:08:34.719Z,70.80
2019-01-21T21:11:12.004Z,77.07
2019-01-21T21:13:50.725Z,73.63
2019-01-21T21:16:26.223Z,80.50
2019-01-21T21:19:01.610Z,74.80
2019-01-21T21:21:38.186Z,75.20
2019-01-21T21:24:13.187Z,73.47
2019-01-21T21:26:48.760Z,79.30
2019-01-21T21:29:29.474Z,71.67
2019-01-21T21:32:11.117Z,78.40
2019-01-21T21:34:47.580Z,70.57
2019-01-21T21:37:25.687Z,77.90
2019-01-21T21:40:01.744Z,73.93
2019-01-21T21:42:38.417Z,77.73
2019-01-21T21:45:15.702Z,75.20
2019-01-21T21:48:09.227Z,80.37
2019-01-21T21:50:44.814Z,75.20
2019-01-21T21:53:21.897Z,72.10
2019-01-21T21:55:58.775Z,83.43
2019-01-21T22:02:16.631Z,72.03
2019-01-21T22:04:52.205Z,73.73
2019-01-21T22:07:27.925Z,75.67
2019-01-21T22:10:04.234Z,75.77
2019-01-21T22:15:58.082Z,71.87
2019-01-21T22:18:32.705Z,74.20
2019-01-21T22:24:50.772Z,81.33
2019-01-21T22:27:25.801Z,69.97
2019-01-21T22:30:04.724Z,77.33
2019-01-21T22:32:40.782Z,76.30
2019-01-21T22:35:15.611Z,72.63
2019-01-21T22:37:52.899Z,76.93
2019-01-21T22:40:29.215Z,67.90
2019-01-21T22:43:05.831Z,70.60
2019-01-21T22:45:42.206Z,64.30
2019-01-21T22:48:17.947Z,67.03
2019-01-21T22:50:53.239Z,71.90
2019-01-21T22:53:31.700Z,67.57
2019-01-21T22:56:07.758Z,72.37
2019-01-21T22:58:43.252Z,66.93
2019-01-21T23:01:29.906Z,69.80
2019-01-21T23:04:06.169Z,62.10
2019-01-21T23:06:40.233Z,73.37
2019-01-21T23:09:15.264Z,56.20
2019-01-21T23:11:50.660Z,63.70
2019-01-21T23:14:26.229Z,59.23
2019-01-21T23:17:02.773Z,59.57
2019-01-21T23:19:38.829Z,61.23
2019-01-21T23:22:13.658Z,59.80
2019-01-21T23:24:49.236Z,65.53
2019-01-21T23:27:26.181Z,62.43
2019-01-21T23:30:04.904Z,68.60
2019-01-21T23:35:46.712Z,56.80
2019-01-21T23:38:22.770Z,53.30
2019-01-21T23:40:58.262Z,59.37
2019-01-21T23:43:33.657Z,57.57
2019-01-21T23:46:12.787Z,55.77
2019-01-21T23:48:47.820Z,56.10
2019-01-21T23:51:24.695Z,54.63
2019-01-21T23:53:59.731Z,54.70
2019-01-21T23:56:35.993Z,61.90
2019-01-21T23:59:10.258Z,60.03
